Time;durP1;ratioP1;P1;durP2;ratioP2;P2;SDS_P1;SDS_P2;PMS_P1;PMS_P2;Temp;Humidity;BMP_temperature;BMP_pressure;BME280_temperature;BME280_humidity;BME280_pressure;Samples;Min_cycle;Max_cycle;Signal;HPM_P1;HPM_P2
2022/05/28 00:01:10;;;;;;;5.57;1.20;;;10.30;99.90;;;;;;5093848;28;20048;-69
2022/05/28 00:03:36;;;;;;;6.07;1.48;;;10.30;99.90;;;;;;5093542;28;20111;-72
2022/05/28 00:06:02;;;;;;;8.52;1.23;;;11.10;99.90;;;;;;5093627;28;20040;-72
2022/05/28 00:08:28;;;;;;;;;;;10.30;99.90;;;;;;5075692;28;20056;-69
2022/05/28 00:10:56;;;;;;;12.68;2.03;;;10.20;99.90;;;;;;5093466;28;19926;-69
2022/05/28 00:13:23;;;;;;;6.38;1.23;;;10.20;99.90;;;;;;5093321;28;20051;-72
2022/05/28 00:15:50;;;;;;;5.88;1.33;;;10.20;99.90;;;;;;5093575;28;20098;-69
2022/05/28 00:18:15;;;;;;;6.47;1.08;;;10.20;99.90;;;;;;5075679;28;20123;-70
2022/05/28 00:20:42;;;;;;;5.82;1.23;;;10.10;99.90;;;;;;5075767;28;20131;-69
2022/05/28 00:23:07;;;;;;;9.40;1.40;;;10.10;99.90;;;;;;5093227;28;20553;-69
2022/05/28 00:25:33;;;;;;;12.60;1.63;;;10.10;99.90;;;;;;5093341;28;20056;-69
2022/05/28 00:27:58;;;;;;;7.45;1.38;;;10.10;99.90;;;;;;5058745;28;20071;-69
2022/05/28 00:30:24;;;;;;;5.38;1.40;;;10.30;99.90;;;;;;5093041;28;20044;-70
2022/05/28 00:32:50;;;;;;;8.70;1.40;;;10.00;99.90;;;;;;5075482;28;20055;-73
2022/05/28 00:35:18;;;;;;;4.60;1.20;;;9.90;99.90;;;;;;5093358;28;20040;-70
2022/05/28 00:37:46;;;;;;;4.38;1.10;;;9.90;99.90;;;;;;5097103;28;20316;-72
2022/05/28 00:40:22;;;;;;;3.25;0.85;;;9.90;99.90;;;;;;5079500;28;20044;-69
2022/05/28 00:42:48;;;;;;;5.57;1.10;;;9.90;99.90;;;;;;5097233;28;20119;-69
2022/05/28 00:45:14;;;;;;;;;;;10.10;99.90;;;;;;5079962;28;20576;-69
2022/05/28 00:47:49;;;;;;;10.63;1.48;;;10.00;99.90;;;;;;5097357;28;19993;-70
2022/05/28 00:50:16;;;;;;;10.82;2.45;;;9.90;99.90;;;;;;5079394;28;20408;-71
2022/05/28 00:52:43;;;;;;;5.25;0.85;;;9.70;99.90;;;;;;5097148;28;20040;-69
2022/05/28 00:55:09;;;;;;;;;;;9.70;99.90;;;;;;5079707;28;20140;-69
2022/05/28 00:57:37;;;;;;;5.18;1.10;;;10.00;99.90;;;;;;5062155;28;19920;-69
2022/05/28 01:00:04;;;;;;;9.45;1.30;;;9.60;99.90;;;;;;5097070;28;20101;-69
2022/05/28 01:02:55;;;;;;;4.13;1.40;;;9.50;99.90;;;;;;5096935;28;20047;-69
2022/05/28 01:05:35;;;;;;;7.35;1.20;;;9.50;99.90;;;;;;5097028;28;20561;-69
2022/05/28 01:08:24;;;;;;;6.68;1.38;;;9.50;99.90;;;;;;5078525;28;20411;-69
2022/05/28 01:11:03;;;;;;;10.25;1.42;;;9.50;99.90;;;;;;5096881;28;20397;-70
2022/05/28 01:13:43;;;;;;;5.10;1.48;;;9.40;99.90;;;;;;5078967;28;20119;-69
2022/05/28 01:16:25;;;;;;;4.60;0.90;;;9.40;99.90;;;;;;5096562;28;20055;-69
2022/05/28 01:18:56;;;;;;;10.02;1.27;;;9.40;99.90;;;;;;5096829;28;20076;-69
2022/05/28 01:21:34;;;;;;;8.52;1.63;;;9.30;99.90;;;;;;5096759;28;20137;-69
2022/05/28 01:24:15;;;;;;;5.63;1.63;;;9.30;99.90;;;;;;5078702;28;20112;-70
2022/05/28 01:26:59;;;;;;;5.22;1.40;;;9.30;99.90;;;;;;5096422;28;20044;-69
2022/05/28 01:29:31;;;;;;;5.95;1.48;;;9.30;99.90;;;;;;5096331;28;20056;-70
2022/05/28 01:32:00;;;;;;;5.88;1.40;;;9.40;99.90;;;;;;5096417;28;20052;-69
2022/05/28 01:34:28;;;;;;;9.95;1.40;;;10.10;99.90;;;;;;5096293;28;20059;-69
2022/05/28 01:36:56;;;;;;;8.40;1.30;;;9.20;99.90;;;;;;5077877;28;20040;-69
2022/05/28 01:39:22;;;;;;;6.05;1.30;;;9.20;99.90;;;;;;5096062;28;20048;-71
2022/05/28 01:41:50;;;;;;;3.40;1.40;;;9.20;99.90;;;;;;5096085;28;20040;-69
2022/05/28 01:44:17;;;;;;;7.68;1.52;;;9.20;99.90;;;;;;5096082;28;20181;-69
2022/05/28 01:46:46;;;;;;;4.45;1.13;;;9.80;99.90;;;;;;5096025;28;20040;-69
2022/05/28 01:49:15;;;;;;;7.63;1.77;;;9.30;99.90;;;;;;5095975;28;20044;-73
2022/05/28 01:51:47;;;;;;;6.13;1.70;;;9.20;99.90;;;;;;5095862;28;20051;-70
2022/05/28 01:54:16;;;;;;;3.42;1.30;;;9.20;99.90;;;;;;5095779;28;20043;-69
2022/05/28 01:56:45;;;;;;;9.63;1.58;;;9.20;99.90;;;;;;5095910;28;20044;-69
2022/05/28 01:59:14;;;;;;;5.22;0.93;;;9.20;99.90;;;;;;5077829;28;20040;-72
2022/05/28 02:01:40;;;;;;;11.75;2.78;;;9.20;99.90;;;;;;5095665;28;20139;-69
2022/05/28 02:04:07;;;;;;;8.18;1.33;;;9.70;99.90;;;;;;5095920;28;20052;-71
2022/05/28 02:06:35;;;;;;;6.13;1.95;;;9.90;99.90;;;;;;5095327;28;20044;-69
2022/05/28 02:09:05;;;;;;;4.30;2.20;;;9.80;99.90;;;;;;5095413;28;20514;-69
2022/05/28 02:11:47;;;;;;;9.23;1.30;;;9.20;99.90;;;;;;5077805;28;20050;-69
2022/05/28 02:14:41;;;;;;;11.30;1.92;;;9.20;99.90;;;;;;5077577;28;20052;-69
2022/05/28 02:17:36;;;;;;;9.20;1.33;;;9.20;99.90;;;;;;5095289;28;20040;-70
2022/05/28 02:20:40;;;;;;;7.63;1.60;;;9.20;99.90;;;;;;5095474;28;20044;-69
2022/05/28 02:23:31;;;;;;;4.13;1.23;;;9.20;99.90;;;;;;5095287;28;20052;-68
2022/05/28 02:26:00;;;;;;;8.65;1.80;;;9.20;99.90;;;;;;5095365;28;20115;-72
2022/05/28 02:28:28;;;;;;;10.65;1.50;;;9.30;99.90;;;;;;5077467;28;20105;-70
2022/05/28 02:31:02;;;;;;;9.52;1.60;;;9.30;99.90;;;;;;5095132;28;20102;-69
2022/05/28 02:33:28;;;;;;;7.28;1.42;;;9.30;99.90;;;;;;5094982;28;20515;-70
2022/05/28 02:35:54;;;;;;;9.93;1.55;;;9.50;99.90;;;;;;5095061;28;20085;-73
2022/05/28 02:38:20;;;;;;;11.60;1.60;;;10.20;99.90;;;;;;5094889;28;20086;-68
2022/05/28 02:40:46;;;;;;;3.40;1.42;;;9.30;99.90;;;;;;5077083;28;20043;-68
2022/05/28 02:43:11;;;;;;;7.72;1.67;;;9.20;99.90;;;;;;5095032;28;20181;-72
2022/05/28 02:45:38;;;;;;;5.25;1.27;;;9.30;99.90;;;;;;5094802;28;20488;-69
2022/05/28 02:48:04;;;;;;;8.20;1.88;;;9.60;99.90;;;;;;5094814;28;20051;-69
2022/05/28 02:50:29;;;;;;;8.10;1.95;;;9.20;99.90;;;;;;5110783;28;20127;-70
2022/05/28 02:52:56;;;;;;;7.38;2.13;;;9.20;99.90;;;;;;5076705;28;20115;-70
2022/05/28 02:55:22;;;;;;;6.32;1.30;;;9.20;99.90;;;;;;5094788;28;20403;-69
2022/05/28 02:57:48;;;;;;;6.72;1.58;;;9.90;99.90;;;;;;5094626;28;20036;-70
2022/05/28 03:00:17;;;;;;;6.75;2.20;;;9.20;99.90;;;;;;5093998;28;20127;-69
2022/05/28 03:02:44;;;;;;;12.98;2.60;;;9.30;99.90;;;;;;5094518;28;20043;-69
2022/05/28 03:05:12;;;;;;;10.95;2.22;;;9.30;99.90;;;;;;5094505;28;20048;-69
2022/05/28 03:07:38;;;;;;;10.18;1.77;;;9.30;99.90;;;;;;5094295;28;20489;-73
2022/05/28 03:10:04;;;;;;;6.25;2.10;;;9.30;99.90;;;;;;5094476;28;20062;-69
2022/05/28 03:12:30;;;;;;;7.38;1.70;;;9.30;99.90;;;;;;5094317;28;20052;-69
2022/05/28 03:14:56;;;;;;;5.55;1.63;;;9.30;99.90;;;;;;5094157;28;20044;-70
2022/05/28 03:17:21;;;;;;;12.07;2.03;;;9.30;99.90;;;;;;5076077;28;20093;-70
2022/05/28 03:19:47;;;;;;;9.52;1.67;;;9.30;99.90;;;;;;5076348;28;20051;-69
2022/05/28 03:22:13;;;;;;;5.28;1.40;;;9.30;99.90;;;;;;5094033;28;20079;-70
2022/05/28 03:24:39;;;;;;;13.23;2.60;;;10.20;99.90;;;;;;5094010;28;20044;-69
2022/05/28 03:27:05;;;;;;;6.28;1.40;;;9.20;99.90;;;;;;5094209;28;20078;-71
2022/05/28 03:29:30;;;;;;;8.27;2.22;;;9.10;99.90;;;;;;5076206;28;20044;-69
2022/05/28 03:31:56;;;;;;;6.65;2.22;;;9.10;99.90;;;;;;5094110;28;20568;-69
2022/05/28 03:34:22;;;;;;;13.47;1.93;;;9.00;99.90;;;;;;5093899;28;20058;-69
2022/05/28 03:36:47;;;;;;;10.15;1.65;;;9.00;99.90;;;;;;5093872;28;20785;-71
2022/05/28 03:39:13;;;;;;;12.32;2.35;;;9.60;99.90;;;;;;5093913;28;20040;-70
2022/05/28 03:41:40;;;;;;;4.10;1.75;;;8.90;99.90;;;;;;5094224;28;20040;-68
2022/05/28 03:44:06;;;;;;;13.00;2.33;;;9.00;99.90;;;;;;5094012;28;20047;-69
2022/05/28 03:46:34;;;;;;;10.63;2.13;;;9.20;99.90;;;;;;5093989;28;20404;-68
2022/05/28 03:49:04;;;;;;;7.43;1.70;;;8.90;99.90;;;;;;5093865;28;20044;-70
2022/05/28 03:51:30;;;;;;;5.28;1.90;;;8.90;99.90;;;;;;5075738;28;20079;-71
2022/05/28 03:53:56;;;;;;;10.75;1.88;;;9.80;99.90;;;;;;5093666;28;20475;-73
2022/05/28 03:56:25;;;;;;;12.35;1.92;;;9.30;99.90;;;;;;5093751;28;20079;-69
2022/05/28 03:58:50;;;;;;;11.32;1.80;;;8.90;99.90;;;;;;5093838;28;20101;-73
2022/05/28 04:01:17;;;;;;;11.55;1.95;;;9.00;99.90;;;;;;5093621;28;20048;-68
2022/05/28 04:03:43;;;;;;;7.75;1.90;;;9.50;99.90;;;;;;5093796;28;20047;-71
2022/05/28 04:06:10;;;;;;;8.85;1.60;;;9.10;99.90;;;;;;5091843;28;20051;-72
2022/05/28 04:08:36;;;;;;;7.32;2.28;;;9.00;99.90;;;;;;5093725;28;20091;-69
2022/05/28 04:11:02;;;;;;;6.78;2.05;;;9.00;99.90;;;;;;5074360;28;20129;-73
2022/05/28 04:13:28;;;;;;;8.38;1.80;;;10.60;99.90;;;;;;5093657;28;20408;-69
2022/05/28 04:15:53;;;;;;;9.57;2.22;;;9.10;99.90;;;;;;5093543;28;20052;-69
2022/05/28 04:18:19;;;;;;;6.80;2.17;;;9.70;99.90;;;;;;5093352;28;20043;-71
2022/05/28 04:20:45;;;;;;;9.45;2.65;;;9.20;99.90;;;;;;5093336;28;20479;-69
2022/05/28 04:23:11;;;;;;;8.27;1.90;;;9.50;99.90;;;;;;5109260;28;20050;-72
2022/05/28 04:25:37;;;;;;;11.18;2.60;;;9.30;99.90;;;;;;5075371;28;20063;-69
2022/05/28 04:28:03;;;;;;;6.30;1.92;;;9.40;99.90;;;;;;5075454;28;20039;-69
2022/05/28 04:30:28;;;;;;;9.88;2.97;;;9.40;99.90;;;;;;5093297;28;20048;-70
2022/05/28 04:32:54;;;;;;;8.87;2.47;;;9.40;99.90;;;;;;5093267;28;20036;-69
2022/05/28 04:35:20;;;;;;;8.63;1.92;;;9.50;99.90;;;;;;5075223;28;20050;-71
2022/05/28 04:37:45;;;;;;;9.25;1.50;;;9.50;99.90;;;;;;5093115;28;20373;-69
2022/05/28 04:40:12;;;;;;;7.55;1.75;;;9.50;99.90;;;;;;5093048;28;20100;-69
2022/05/28 04:42:37;;;;;;;;;;;9.50;99.90;;;;;;5093730;28;20177;-73
2022/05/28 04:45:04;;;;;;;7.90;1.73;;;9.60;99.90;;;;;;5093168;28;19981;-69
2022/05/28 04:47:29;;;;;;;10.65;2.03;;;9.70;99.90;;;;;;5093279;28;20044;-70
2022/05/28 04:49:55;;;;;;;5.20;2.20;;;9.70;99.90;;;;;;5093209;28;20047;-69
2022/05/28 04:52:21;;;;;;;11.25;2.10;;;9.70;99.90;;;;;;5093061;28;20123;-69
2022/05/28 04:54:47;;;;;;;7.80;1.98;;;9.70;99.90;;;;;;5092918;28;20084;-69
2022/05/28 04:57:13;;;;;;;7.88;1.27;;;9.70;99.90;;;;;;5093172;28;20472;-69
2022/05/28 04:59:39;;;;;;;8.20;1.20;;;9.70;99.90;;;;;;5093133;28;20047;-69
2022/05/28 05:02:06;;;;;;;10.32;1.40;;;9.70;99.90;;;;;;5108441;28;20381;-69
2022/05/28 05:04:32;;;;;;;7.70;1.83;;;9.70;99.90;;;;;;5075101;28;20052;-70
2022/05/28 05:06:57;;;;;;;4.80;1.38;;;10.20;99.90;;;;;;5092764;28;20096;-69
2022/05/28 05:09:23;;;;;;;4.10;1.50;;;9.70;99.90;;;;;;5092862;28;20481;-73
2022/05/28 05:11:49;;;;;;;9.40;1.95;;;9.80;99.90;;;;;;5092768;28;20044;-72
2022/05/28 05:14:15;;;;;;;5.22;1.52;;;9.80;99.90;;;;;;5092843;28;20407;-70
2022/05/28 05:16:40;;;;;;;6.85;2.63;;;9.80;99.90;;;;;;5092921;28;20047;-69
2022/05/28 05:19:06;;;;;;;7.40;1.55;;;9.90;99.90;;;;;;5092927;28;20489;-69
2022/05/28 05:21:32;;;;;;;3.30;1.17;;;9.90;99.90;;;;;;5092883;28;20131;-72
2022/05/28 05:23:58;;;;;;;9.05;1.95;;;10.20;99.90;;;;;;5096561;28;20492;-69
2022/05/28 05:26:23;;;;;;;3.53;1.77;;;10.00;99.90;;;;;;5078547;28;20047;-69
2022/05/28 05:28:50;;;;;;;10.93;2.17;;;10.00;99.90;;;;;;5096717;28;20079;-72
2022/05/28 05:31:16;;;;;;;12.38;1.98;;;10.00;99.90;;;;;;5096573;28;20638;-69
2022/05/28 05:33:42;;;;;;;6.85;1.77;;;10.00;99.90;;;;;;5096455;28;20148;-69
2022/05/28 05:36:08;;;;;;;7.80;2.20;;;10.00;99.90;;;;;;5096331;28;20508;-70
2022/05/28 05:38:34;;;;;;;8.40;2.00;;;10.30;99.90;;;;;;5078414;28;20048;-69
2022/05/28 05:41:00;;;;;;;7.22;2.42;;;10.70;99.90;;;;;;5078027;28;20070;-69
2022/05/28 05:43:25;;;;;;;9.87;2.63;;;10.20;99.90;;;;;;5096439;28;20051;-72
2022/05/28 05:45:56;;;;;;;11.47;2.03;;;10.30;99.90;;;;;;5078423;28;20286;-70
2022/05/28 05:48:22;;;;;;;8.90;2.28;;;10.50;99.90;;;;;;5096130;28;20310;-69
2022/05/28 05:50:49;;;;;;;8.52;2.50;;;10.60;99.90;;;;;;5078063;28;20142;-71
2022/05/28 05:53:16;;;;;;;11.55;2.10;;;10.40;99.90;;;;;;5096056;28;20044;-71
2022/05/28 05:55:42;;;;;;;8.27;1.92;;;10.50;99.90;;;;;;5095892;28;20066;-69
2022/05/28 05:58:08;;;;;;;15.57;3.20;;;10.70;99.90;;;;;;5096055;28;20032;-69
2022/05/28 06:00:35;;;;;;;11.55;2.92;;;11.00;99.90;;;;;;5095703;28;20400;-69
2022/05/28 06:03:01;;;;;;;9.90;2.70;;;10.90;99.90;;;;;;5095852;28;20078;-71
2022/05/28 06:05:27;;;;;;;;;;;11.80;99.90;;;;;;5096350;28;20040;-69
2022/05/28 06:07:52;;;;;;;12.13;2.25;;;11.30;99.90;;;;;;5096021;28;19920;-70
2022/05/28 06:10:19;;;;;;;16.90;3.05;;;11.30;99.90;;;;;;5095539;28;20052;-69
2022/05/28 06:12:44;;;;;;;9.00;2.17;;;11.30;99.90;;;;;;5095808;28;20048;-70
2022/05/28 06:15:12;;;;;;;13.05;2.45;;;11.90;99.90;;;;;;5095508;28;20051;-72
2022/05/28 06:17:38;;;;;;;11.35;2.15;;;11.40;99.90;;;;;;5077583;28;20070;-69
2022/05/28 06:20:06;;;;;;;7.72;2.50;;;11.30;99.90;;;;;;5095572;28;20484;-69
2022/05/28 06:22:32;;;;;;;11.43;1.52;;;11.30;99.90;;;;;;5095573;28;20089;-69
2022/05/28 06:24:58;;;;;;;7.03;1.58;;;11.40;99.90;;;;;;5095386;28;20036;-69
2022/05/28 06:27:23;;;;;;;10.02;1.77;;;11.50;99.90;;;;;;5095342;28;20044;-70
2022/05/28 06:29:49;;;;;;;6.07;1.92;;;11.30;99.90;;;;;;5095414;28;20135;-72
2022/05/28 06:32:15;;;;;;;9.15;1.42;;;11.60;99.90;;;;;;5077419;28;20084;-69
2022/05/28 06:34:41;;;;;;;5.20;1.38;;;11.20;99.90;;;;;;5094315;28;20052;-71
2022/05/28 06:37:09;;;;;;;4.68;1.35;;;11.00;99.90;;;;;;5095117;28;20087;-70
2022/05/28 06:39:36;;;;;;;3.15;0.90;;;10.90;99.90;;;;;;5077348;28;20097;-71
2022/05/28 06:42:03;;;;;;;5.63;1.52;;;10.80;99.90;;;;;;5095276;28;20054;-69
2022/05/28 06:44:29;;;;;;;5.90;1.15;;;10.70;99.90;;;;;;5095090;28;20560;-69
2022/05/28 06:46:54;;;;;;;6.18;0.98;;;10.70;99.90;;;;;;5095149;28;20076;-73
2022/05/28 06:49:20;;;;;;;6.85;1.65;;;10.70;99.90;;;;;;5094964;28;20048;-69
2022/05/28 06:51:47;;;;;;;5.15;1.33;;;11.20;99.90;;;;;;5095042;28;20048;-69
2022/05/28 06:54:12;;;;;;;6.68;1.45;;;10.80;99.90;;;;;;5093686;28;20110;-69
2022/05/28 06:56:38;;;;;;;12.13;1.83;;;10.90;99.90;;;;;;5094126;28;20500;-71
2022/05/28 06:59:04;;;;;;;6.32;2.08;;;10.90;99.90;;;;;;5094557;28;20402;-70
2022/05/28 07:01:30;;;;;;;7.05;1.70;;;11.00;99.90;;;;;;5110580;28;20432;-69
2022/05/28 07:03:55;;;;;;;8.50;2.53;;;11.00;99.90;;;;;;5094511;28;20044;-69
2022/05/28 07:06:21;;;;;;;13.48;2.33;;;11.10;99.90;;;;;;5094606;28;20438;-69
2022/05/28 07:08:47;;;;;;;10.60;2.00;;;11.30;99.90;;;;;;5076234;28;20052;-73
2022/05/28 07:11:13;;;;;;;8.80;2.30;;;11.40;99.90;;;;;;5094297;28;20058;-68
2022/05/28 07:13:39;;;;;;;11.10;2.33;;;11.50;99.90;;;;;;5094589;28;20135;-69
2022/05/28 07:16:07;;;;;;;15.40;2.47;;;11.60;99.90;;;;;;5076608;28;20054;-72
2022/05/28 07:18:38;;;;;;;11.35;2.30;;;12.50;99.90;;;;;;5076645;28;20048;-68
2022/05/28 07:21:04;;;;;;;14.13;2.67;;;11.80;99.90;;;;;;5094329;28;20048;-69
2022/05/28 07:23:31;;;;;;;9.93;2.13;;;11.80;99.90;;;;;;5094237;28;20048;-69
2022/05/28 07:26:13;;;;;;;15.48;2.58;;;11.80;99.90;;;;;;5094070;28;20554;-69
2022/05/28 07:28:41;;;;;;;9.80;2.25;;;11.90;99.90;;;;;;5094243;28;20036;-71
2022/05/28 07:31:11;;;;;;;11.10;2.47;;;11.90;99.90;;;;;;5094114;28;20100;-69
2022/05/28 07:33:39;;;;;;;9.40;1.77;;;12.10;99.90;;;;;;5094257;28;20044;-69
2022/05/28 07:36:07;;;;;;;11.20;2.53;;;11.80;99.90;;;;;;5094029;28;20052;-69
2022/05/28 07:38:34;;;;;;;14.90;2.28;;;11.80;99.90;;;;;;5093886;28;20138;-70
2022/05/28 07:41:05;;;;;;;7.72;1.63;;;11.90;99.90;;;;;;5076255;28;20044;-70
2022/05/28 07:43:32;;;;;;;13.05;2.22;;;12.00;99.90;;;;;;5093939;28;20044;-70
2022/05/28 07:45:57;;;;;;;6.75;1.88;;;12.10;99.90;;;;;;5094025;28;20472;-70
2022/05/28 07:48:23;;;;;;;6.18;2.03;;;12.10;99.90;;;;;;5093782;28;20089;-71
2022/05/28 07:50:48;;;;;;;6.97;1.58;;;12.40;99.90;;;;;;5075985;28;20048;-71
2022/05/28 07:53:15;;;;;;;6.82;1.85;;;12.30;99.90;;;;;;5058593;28;20067;-70
2022/05/28 07:55:41;;;;;;;13.85;2.10;;;12.50;99.90;;;;;;5093989;28;20051;-70
2022/05/28 07:58:12;;;;;;;6.50;1.70;;;12.50;99.90;;;;;;5109637;28;20123;-69
2022/05/28 08:00:44;;;;;;;7.05;1.77;;;12.50;99.90;;;;;;5075855;28;20092;-71
2022/05/28 08:03:11;;;;;;;11.38;1.90;;;12.70;99.90;;;;;;5075724;28;20051;-69
2022/05/28 08:05:38;;;;;;;8.23;1.58;;;12.60;99.90;;;;;;5093510;28;20036;-72
2022/05/28 08:08:05;;;;;;;9.20;2.03;;;12.60;99.90;;;;;;5093240;28;20055;-73
2022/05/28 08:10:31;;;;;;;11.45;3.05;;;12.60;99.90;;;;;;5093603;28;20094;-73
2022/05/28 08:13:08;;;;;;;24.88;2.63;;;12.60;99.90;;;;;;5093563;28;20044;-71
2022/05/28 08:15:36;;;;;;;13.30;1.80;;;12.60;99.90;;;;;;5093424;28;20066;-70
2022/05/28 08:18:01;;;;;;;7.45;1.70;;;12.60;99.90;;;;;;5093223;28;20040;-69
2022/05/28 08:23:12;;;;;;;9.27;2.13;;;12.70;99.90;;;;;;5093320;28;20055;-69
2022/05/28 08:25:40;;;;;;;22.60;4.18;;;12.70;99.90;;;;;;5093366;28;20420;-70
2022/05/28 08:28:10;;;;;;;19.15;3.75;;;12.60;99.90;;;;;;5093241;28;20076;-70
2022/05/28 08:30:38;;;;;;;37.72;3.50;;;12.50;99.90;;;;;;5093218;28;20052;-70
2022/05/28 08:33:04;;;;;;;10.45;2.58;;;12.40;99.90;;;;;;5075285;28;20055;-70
2022/05/28 08:35:30;;;;;;;35.35;4.13;;;12.40;99.90;;;;;;5093100;28;20044;-73
2022/05/28 08:37:56;;;;;;;8.73;1.50;;;12.40;99.90;;;;;;5093277;28;20036;-70
2022/05/28 08:40:23;;;;;;;7.38;1.85;;;12.40;99.90;;;;;;5093348;28;20481;-70
2022/05/28 08:42:50;;;;;;;30.02;3.15;;;12.60;99.90;;;;;;5093152;28;20044;-70
2022/05/28 08:45:16;;;;;;;;;;;12.70;99.90;;;;;;5093501;28;20051;-70
2022/05/28 08:47:46;;;;;;;16.00;1.98;;;12.80;99.90;;;;;;5093021;28;19927;-71
2022/05/28 08:50:12;;;;;;;9.32;2.28;;;12.90;99.90;;;;;;5093185;28;20113;-70
2022/05/28 08:52:48;;;;;;;9.15;2.13;;;13.00;99.90;;;;;;5093187;28;20128;-69
2022/05/28 08:55:20;;;;;;;67.97;4.75;;;13.10;99.90;;;;;;5092937;28;20044;-73
2022/05/28 08:58:12;;;;;;;9.77;1.88;;;13.20;99.90;;;;;;5077200;28;20093;-73
2022/05/28 09:00:52;;;;;;;38.05;3.53;;;13.20;99.90;;;;;;5079175;28;20094;-70
2022/05/28 09:03:25;;;;;;;11.13;2.30;;;13.30;99.90;;;;;;5096943;28;20044;-72
2022/05/28 09:06:00;;;;;;;86.00;9.82;;;13.40;99.90;;;;;;5096982;28;20075;-71
2022/05/28 09:08:38;;;;;;;19.30;2.90;;;13.30;99.90;;;;;;5096684;28;20052;-73
2022/05/28 09:11:13;;;;;;;37.03;3.42;;;13.50;99.90;;;;;;5096748;28;20446;-70
2022/05/28 09:13:44;;;;;;;13.80;1.92;;;13.30;99.90;;;;;;5096876;28;20055;-70
2022/05/28 09:16:31;;;;;;;177.18;16.92;;;13.40;99.90;;;;;;5078930;28;20085;-69
2022/05/28 09:19:03;;;;;;;93.82;9.90;;;13.40;99.90;;;;;;5078445;28;20083;-71
2022/05/28 09:21:29;;;;;;;108.88;11.52;;;13.40;99.90;;;;;;5078620;28;20056;-73
2022/05/28 09:23:59;;;;;;;40.85;5.97;;;13.50;99.90;;;;;;5096165;28;20559;-72
2022/05/28 09:26:38;;;;;;;91.03;7.50;;;13.50;99.90;;;;;;5093139;28;20101;-70
2022/05/28 09:29:17;;;;;;;35.67;4.30;;;13.50;99.90;;;;;;5096895;28;20052;-70
2022/05/28 09:32:12;;;;;;;55.90;7.05;;;13.50;99.90;;;;;;5096267;28;20496;-70
2022/05/28 09:34:50;;;;;;;41.55;5.85;;;13.70;99.90;;;;;;5096695;28;20062;-71
2022/05/28 09:37:40;;;;;;;6.28;1.30;;;13.80;99.90;;;;;;5096359;28;20036;-70
2022/05/28 09:40:19;;;;;;;15.38;2.22;;;13.80;99.90;;;;;;5096307;28;20048;-70
2022/05/28 09:43:03;;;;;;;47.35;4.93;;;13.90;99.90;;;;;;5096430;28;20054;-72
2022/05/28 09:45:37;;;;;;;34.70;3.90;;;13.70;99.90;;;;;;5112304;28;20105;-70
2022/05/28 09:48:02;;;;;;;12.30;2.22;;;13.60;99.90;;;;;;5078011;28;20127;-71
2022/05/28 09:50:38;;;;;;;53.72;4.30;;;13.50;99.90;;;;;;5096096;28;20123;-70
2022/05/28 09:56:15;;;;;;;39.95;4.25;;;13.60;99.90;;;;;;5095774;28;20048;-73
2022/05/28 09:58:41;;;;;;;22.13;2.67;;;13.60;99.90;;;;;;5095759;28;20132;-70
2022/05/28 10:01:23;;;;;;;7.63;1.67;;;13.70;99.90;;;;;;5095639;28;20048;-70
2022/05/28 10:06:47;;;;;;;63.78;7.15;;;13.90;99.90;;;;;;5077559;28;20059;-72
2022/05/28 10:09:26;;;;;;;109.07;10.98;;;13.80;99.90;;;;;;5094139;28;20566;-71
2022/05/28 10:11:59;;;;;;;64.85;7.30;;;13.70;99.90;;;;;;5095361;28;20094;-70
2022/05/28 10:14:28;;;;;;;26.35;3.63;;;13.50;99.90;;;;;;5095687;28;20070;-70
2022/05/28 10:17:00;;;;;;;142.48;14.80;;;13.60;99.90;;;;;;5095263;28;20040;-71
2022/05/28 10:19:44;;;;;;;102.20;10.95;;;13.70;99.90;;;;;;5095081;28;20087;-71
2022/05/28 10:22:17;;;;;;;45.53;5.18;;;13.80;99.90;;;;;;5077149;28;20074;-70
2022/05/28 10:24:47;;;;;;;112.68;10.60;;;13.80;99.90;;;;;;5095428;28;20079;-72
2022/05/28 10:27:24;;;;;;;56.25;6.18;;;13.80;99.90;;;;;;5095426;28;20109;-72
2022/05/28 10:29:50;;;;;;;;;;;13.90;99.90;;;;;;5095726;28;20057;-72
2022/05/28 10:32:33;;;;;;;73.90;8.18;;;14.00;99.90;;;;;;5095012;28;19920;-71
2022/05/28 10:35:16;;;;;;;13.55;1.80;;;13.90;99.90;;;;;;5095021;28;20079;-74
2022/05/28 10:37:42;;;;;;;90.65;8.75;;;13.80;99.90;;;;;;5095072;28;20048;-70
2022/05/28 10:40:24;;;;;;;10.15;1.38;;;13.80;99.90;;;;;;5094373;28;20051;-70
2022/05/28 10:42:57;;;;;;;17.27;1.73;;;13.70;99.90;;;;;;5094518;28;20127;-70
2022/05/28 10:45:40;;;;;;;328.02;30.88;;;13.80;99.90;;;;;;5094415;28;20044;-69
2022/05/28 10:48:55;;;;;;;21.65;2.53;;;13.90;99.90;;;;;;5094932;28;20040;-71
2022/05/28 10:51:37;;;;;;;83.32;7.93;;;13.80;99.90;;;;;;5012501;28;20064;-71
2022/05/28 10:54:43;;;;;;;143.70;14.52;;;13.80;99.90;;;;;;5012391;28;20514;-71
2022/05/28 10:57:11;;;;;;;13.27;2.08;;;13.90;99.90;;;;;;5012431;28;20046;-73
2022/05/28 10:59:37;;;;;;;76.80;7.32;;;14.00;99.90;;;;;;5012335;28;20050;-70
2022/05/28 11:02:09;;;;;;;57.22;5.43;;;13.90;99.90;;;;;;5012293;28;20061;-70
2022/05/28 11:05:13;;;;;;;6.43;0.75;;;13.90;99.90;;;;;;5012340;28;20179;-74
2022/05/28 11:07:51;;;;;;;83.15;8.20;;;13.80;99.90;;;;;;4998239;28;20104;-73
2022/05/28 11:10:50;;;;;;;39.50;5.53;;;13.70;99.90;;;;;;4996123;28;20406;-73
2022/05/28 11:13:27;;;;;;;10.52;1.77;;;13.60;99.90;;;;;;4998596;28;20506;-70
2022/05/28 11:16:19;;;;;;;4.68;0.88;;;13.50;99.90;;;;;;5012168;28;20045;-71
2022/05/28 11:18:54;;;;;;;9.30;1.60;;;13.50;99.90;;;;;;4990083;28;20097;-71
2022/05/28 11:21:22;;;;;;;14.93;1.73;;;13.60;99.90;;;;;;4995445;28;20101;-72
2022/05/28 11:24:02;;;;;;;6.55;1.45;;;13.60;99.90;;;;;;4995811;28;20042;-71
2022/05/28 11:26:56;;;;;;;6.97;1.08;;;13.50;99.90;;;;;;5004396;28;20098;-70
2022/05/28 11:29:44;;;;;;;9.98;1.52;;;13.50;99.90;;;;;;5094050;28;20048;-70
2022/05/28 11:32:16;;;;;;;11.55;2.08;;;13.50;99.90;;;;;;5093781;28;20523;-71
2022/05/28 11:34:55;;;;;;;10.32;1.52;;;13.50;99.90;;;;;;5094151;28;20112;-72
2022/05/28 11:37:31;;;;;;;5.57;1.10;;;13.50;99.90;;;;;;5074829;28;20048;-70
2022/05/28 11:40:04;;;;;;;6.22;1.33;;;13.60;99.90;;;;;;5093912;28;20040;-73
2022/05/28 11:42:37;;;;;;;6.03;1.25;;;13.60;99.90;;;;;;5094139;28;20052;-70
2022/05/28 11:45:08;;;;;;;5.40;1.20;;;13.70;99.90;;;;;;5094076;28;20044;-70
2022/05/28 11:47:46;;;;;;;60.10;6.95;;;13.60;99.90;;;;;;5093854;28;20079;-70
2022/05/28 11:53:49;;;;;;;15.45;2.17;;;13.50;99.90;;;;;;5075820;28;20090;-71
2022/05/28 11:56:22;;;;;;;12.52;1.65;;;13.50;99.90;;;;;;5093490;28;20583;-70
2022/05/28 11:59:15;;;;;;;7.63;1.27;;;13.60;99.90;;;;;;5093583;28;20051;-71
2022/05/28 12:01:49;;;;;;;122.30;15.23;;;13.70;99.90;;;;;;5093631;28;20052;-70
2022/05/28 12:04:14;;;;;;;26.80;3.72;;;13.90;99.90;;;;;;5093751;28;20040;-73
2022/05/28 12:06:46;;;;;;;13.13;1.45;;;14.20;99.90;;;;;;5075101;28;20466;-70
2022/05/28 12:09:16;;;;;;;6.57;1.38;;;13.80;99.90;;;;;;5093402;28;20129;-72
2022/05/28 12:12:23;;;;;;;4.20;1.42;;;13.80;99.90;;;;;;5093256;28;20055;-74
2022/05/28 12:15:15;;;;;;;159.43;16.25;;;13.90;99.90;;;;;;4995272;28;20053;-71
2022/05/28 12:18:04;;;;;;;7.35;0.95;;;14.10;97.70;;;;;;5011279;28;20095;-70
2022/05/28 12:20:36;;;;;;;22.70;2.80;;;14.20;99.90;;;;;;5011257;28;20140;-71
2022/05/28 12:23:04;;;;;;;9.85;1.70;;;14.20;99.90;;;;;;5011137;28;20061;-70
2022/05/28 12:25:36;;;;;;;23.02;2.35;;;14.20;99.90;;;;;;4994882;28;20068;-70
2022/05/28 12:28:11;;;;;;;11.15;1.30;;;14.20;99.90;;;;;;5011264;28;20042;-72
2022/05/28 12:30:41;;;;;;;10.85;2.10;;;14.30;99.90;;;;;;5011000;28;20062;-74
2022/05/28 12:33:28;;;;;;;74.20;9.65;;;14.30;99.90;;;;;;5010321;28;20518;-70
2022/05/28 12:36:08;;;;;;;309.48;30.67;;;14.20;99.90;;;;;;4994990;28;20058;-69
2022/05/28 12:38:54;;;;;;;496.90;49.67;;;14.00;99.90;;;;;;4994665;28;20049;-69
2022/05/28 12:41:26;;;;;;;31.73;5.15;;;13.80;99.90;;;;;;5011142;28;20050;-70
2022/05/28 12:43:59;;;;;;;6.97;1.10;;;13.60;99.90;;;;;;5011095;28;20149;-74
2022/05/28 12:46:41;;;;;;;6.07;1.20;;;13.50;99.90;;;;;;5011084;28;20061;-71
2022/05/28 12:49:18;;;;;;;5.15;0.90;;;13.40;99.90;;;;;;5063120;28;20062;-73
2022/05/28 12:52:11;;;;;;;12.65;1.52;;;13.30;99.90;;;;;;5093268;28;20571;-70
2022/05/28 12:54:39;;;;;;;8.48;1.38;;;13.30;99.90;;;;;;5093006;28;20122;-68
2022/05/28 12:57:09;;;;;;;5.53;1.05;;;13.30;99.90;;;;;;5093020;28;20055;-72
2022/05/28 12:59:42;;;;;;;8.20;1.33;;;13.90;99.90;;;;;;5092931;28;20098;-72
2022/05/28 13:02:31;;;;;;;7.07;1.38;;;13.40;99.90;;;;;;5092710;28;20052;-72
2022/05/28 13:05:03;;;;;;;9.27;1.98;;;13.50;99.90;;;;;;5075206;28;20492;-71
2022/05/28 13:07:36;;;;;;;12.13;1.38;;;14.00;99.90;;;;;;5092773;28;20097;-71
2022/05/28 13:10:24;;;;;;;11.27;2.45;;;13.40;99.90;;;;;;5092884;28;20404;-72
2022/05/28 13:13:12;;;;;;;21.13;2.47;;;13.40;99.90;;;;;;5093085;28;20109;-69
2022/05/28 13:16:13;;;;;;;23.35;3.90;;;13.40;99.90;;;;;;5092852;28;20051;-70
2022/05/28 13:18:48;;;;;;;17.98;2.80;;;13.40;99.90;;;;;;5092590;28;20598;-72
2022/05/28 13:21:17;;;;;;;11.23;1.85;;;13.30;99.90;;;;;;5092884;28;20051;-72